Aviation Digital Data Service (ADDS)

Output produced by METARs form (0435 UTC 14 December 2017)
found at http://aviationweather.gov/adds/metars/
 
KPOU 140241Z 1403/1424 26007KT P6SM FEW050 BKN200 
     FM140500 23004KT P6SM VCSH SCT050 OVC100 
     FM140700 VRB03KT 4SM -SN BR SCT020 OVC030 
     FM140900 VRB03KT 2SM -SN BR OVC015 
     FM141500 31009KT P6SM BKN040